sensor_id;sensor_type;location;lat;lon;timestamp;P1;durP1;ratioP1;P2;durP2;ratioP2
24799;SDS011;12897;50.812;4.430;2024-03-22T00:00:36;48.00;;;21.55;;
24799;SDS011;12897;50.812;4.430;2024-03-22T00:03:04;45.03;;;20.77;;
24799;SDS011;12897;50.812;4.430;2024-03-22T00:05:32;45.83;;;19.73;;
24799;SDS011;12897;50.812;4.430;2024-03-22T00:07:59;40.55;;;19.40;;
24799;SDS011;12897;50.812;4.430;2024-03-22T00:10:27;41.73;;;18.30;;
24799;SDS011;12897;50.812;4.430;2024-03-22T00:12:54;41.55;;;17.87;;
24799;SDS011;12897;50.812;4.430;2024-03-22T00:18:10;43.75;;;17.10;;
24799;SDS011;12897;50.812;4.430;2024-03-22T00:20:38;37.63;;;16.37;;
24799;SDS011;12897;50.812;4.430;2024-03-22T00:23:06;34.03;;;16.02;;
24799;SDS011;12897;50.812;4.430;2024-03-22T00:25:34;33.78;;;15.08;;
24799;SDS011;12897;50.812;4.430;2024-03-22T00:28:02;35.40;;;15.25;;
24799;SDS011;12897;50.812;4.430;2024-03-22T00:30:31;35.20;;;16.00;;
24799;SDS011;12897;50.812;4.430;2024-03-22T00:33:00;32.73;;;14.80;;
24799;SDS011;12897;50.812;4.430;2024-03-22T00:35:27;30.12;;;14.95;;
24799;SDS011;12897;50.812;4.430;2024-03-22T00:37:55;31.27;;;13.98;;
24799;SDS011;12897;50.812;4.430;2024-03-22T00:40:23;33.00;;;14.18;;
24799;SDS011;12897;50.812;4.430;2024-03-22T00:42:51;31.15;;;15.18;;
24799;SDS011;12897;50.812;4.430;2024-03-22T00:45:18;33.10;;;14.33;;
24799;SDS011;12897;50.812;4.430;2024-03-22T00:47:46;25.55;;;12.95;;
24799;SDS011;12897;50.812;4.430;2024-03-22T00:50:13;28.52;;;14.28;;
24799;SDS011;12897;50.812;4.430;2024-03-22T00:52:41;34.95;;;14.60;;
24799;SDS011;12897;50.812;4.430;2024-03-22T00:55:08;32.23;;;14.73;;
24799;SDS011;12897;50.812;4.430;2024-03-22T00:57:36;30.77;;;13.55;;
24799;SDS011;12897;50.812;4.430;2024-03-22T01:00:04;31.37;;;14.30;;
24799;SDS011;12897;50.812;4.430;2024-03-22T01:02:31;33.50;;;15.08;;
24799;SDS011;12897;50.812;4.430;2024-03-22T01:04:59;31.15;;;14.05;;
24799;SDS011;12897;50.812;4.430;2024-03-22T01:07:27;31.45;;;13.98;;
24799;SDS011;12897;50.812;4.430;2024-03-22T01:09:54;28.65;;;13.53;;
24799;SDS011;12897;50.812;4.430;2024-03-22T01:12:22;30.55;;;14.87;;
24799;SDS011;12897;50.812;4.430;2024-03-22T01:14:49;29.45;;;13.90;;
24799;SDS011;12897;50.812;4.430;2024-03-22T01:17:17;32.85;;;14.20;;
24799;SDS011;12897;50.812;4.430;2024-03-22T01:19:44;30.37;;;14.78;;
24799;SDS011;12897;50.812;4.430;2024-03-22T01:22:12;36.45;;;15.25;;
24799;SDS011;12897;50.812;4.430;2024-03-22T01:24:39;28.73;;;14.85;;
24799;SDS011;12897;50.812;4.430;2024-03-22T01:27:07;34.80;;;15.85;;
24799;SDS011;12897;50.812;4.430;2024-03-22T01:29:35;37.63;;;15.83;;
24799;SDS011;12897;50.812;4.430;2024-03-22T01:32:02;38.05;;;16.30;;
24799;SDS011;12897;50.812;4.430;2024-03-22T01:34:30;32.48;;;16.20;;
24799;SDS011;12897;50.812;4.430;2024-03-22T01:36:58;36.20;;;16.80;;
24799;SDS011;12897;50.812;4.430;2024-03-22T01:39:25;38.98;;;16.75;;
24799;SDS011;12897;50.812;4.430;2024-03-22T01:41:53;33.23;;;15.93;;
24799;SDS011;12897;50.812;4.430;2024-03-22T01:44:26;32.78;;;15.48;;
24799;SDS011;12897;50.812;4.430;2024-03-22T01:46:57;38.65;;;16.55;;
24799;SDS011;12897;50.812;4.430;2024-03-22T01:49:28;30.50;;;16.32;;
24799;SDS011;12897;50.812;4.430;2024-03-22T01:51:56;36.38;;;16.65;;
24799;SDS011;12897;50.812;4.430;2024-03-22T01:54:24;34.92;;;16.15;;
24799;SDS011;12897;50.812;4.430;2024-03-22T01:56:51;41.40;;;16.67;;
24799;SDS011;12897;50.812;4.430;2024-03-22T01:59:19;33.83;;;16.15;;
24799;SDS011;12897;50.812;4.430;2024-03-22T02:01:47;36.05;;;16.05;;
24799;SDS011;12897;50.812;4.430;2024-03-22T02:04:15;37.63;;;16.90;;
24799;SDS011;12897;50.812;4.430;2024-03-22T02:06:43;35.43;;;16.20;;
24799;SDS011;12897;50.812;4.430;2024-03-22T02:09:10;35.05;;;15.83;;
24799;SDS011;12897;50.812;4.430;2024-03-22T02:11:38;35.80;;;17.23;;
24799;SDS011;12897;50.812;4.430;2024-03-22T02:14:07;40.73;;;15.95;;
24799;SDS011;12897;50.812;4.430;2024-03-22T02:16:34;38.20;;;16.57;;
24799;SDS011;12897;50.812;4.430;2024-03-22T02:19:02;36.40;;;15.83;;
24799;SDS011;12897;50.812;4.430;2024-03-22T02:21:29;32.03;;;15.78;;
24799;SDS011;12897;50.812;4.430;2024-03-22T02:23:57;33.45;;;15.23;;
24799;SDS011;12897;50.812;4.430;2024-03-22T02:26:25;35.43;;;15.72;;
24799;SDS011;12897;50.812;4.430;2024-03-22T02:28:52;35.83;;;16.15;;
24799;SDS011;12897;50.812;4.430;2024-03-22T02:31:19;35.08;;;14.75;;
24799;SDS011;12897;50.812;4.430;2024-03-22T02:33:47;32.03;;;15.23;;
24799;SDS011;12897;50.812;4.430;2024-03-22T02:36:14;29.60;;;15.45;;
24799;SDS011;12897;50.812;4.430;2024-03-22T02:38:42;37.23;;;16.48;;
24799;SDS011;12897;50.812;4.430;2024-03-22T02:41:10;38.55;;;16.25;;
24799;SDS011;12897;50.812;4.430;2024-03-22T02:43:37;34.50;;;15.18;;
24799;SDS011;12897;50.812;4.430;2024-03-22T02:46:05;39.48;;;14.93;;
24799;SDS011;12897;50.812;4.430;2024-03-22T02:48:32;33.38;;;14.65;;
24799;SDS011;12897;50.812;4.430;2024-03-22T02:51:01;30.72;;;14.28;;
24799;SDS011;12897;50.812;4.430;2024-03-22T02:53:28;37.28;;;14.95;;
24799;SDS011;12897;50.812;4.430;2024-03-22T02:55:56;35.15;;;14.38;;
24799;SDS011;12897;50.812;4.430;2024-03-22T02:58:26;32.35;;;13.40;;
24799;SDS011;12897;50.812;4.430;2024-03-22T03:00:54;30.35;;;13.50;;
24799;SDS011;12897;50.812;4.430;2024-03-22T03:03:22;26.23;;;13.43;;
24799;SDS011;12897;50.812;4.430;2024-03-22T03:05:49;34.20;;;14.13;;
24799;SDS011;12897;50.812;4.430;2024-03-22T03:08:18;27.50;;;13.68;;
24799;SDS011;12897;50.812;4.430;2024-03-22T03:10:45;28.45;;;14.15;;
24799;SDS011;12897;50.812;4.430;2024-03-22T03:13:13;29.48;;;13.83;;
24799;SDS011;12897;50.812;4.430;2024-03-22T03:15:40;33.55;;;13.65;;
24799;SDS011;12897;50.812;4.430;2024-03-22T03:18:08;28.90;;;14.23;;
24799;SDS011;12897;50.812;4.430;2024-03-22T03:20:36;26.97;;;12.43;;
24799;SDS011;12897;50.812;4.430;2024-03-22T03:23:03;33.28;;;13.55;;
24799;SDS011;12897;50.812;4.430;2024-03-22T03:25:31;24.90;;;12.37;;
24799;SDS011;12897;50.812;4.430;2024-03-22T03:27:58;29.87;;;13.45;;
24799;SDS011;12897;50.812;4.430;2024-03-22T03:30:26;26.65;;;12.75;;
24799;SDS011;12897;50.812;4.430;2024-03-22T03:32:53;29.27;;;12.05;;
24799;SDS011;12897;50.812;4.430;2024-03-22T03:35:21;27.98;;;12.80;;
24799;SDS011;12897;50.812;4.430;2024-03-22T03:37:49;28.32;;;12.65;;
24799;SDS011;12897;50.812;4.430;2024-03-22T03:40:17;22.52;;;11.20;;
24799;SDS011;12897;50.812;4.430;2024-03-22T03:42:44;28.00;;;11.78;;
24799;SDS011;12897;50.812;4.430;2024-03-22T03:45:12;27.73;;;10.68;;
24799;SDS011;12897;50.812;4.430;2024-03-22T03:47:39;23.57;;;11.43;;
24799;SDS011;12897;50.812;4.430;2024-03-22T03:50:07;23.38;;;11.45;;
24799;SDS011;12897;50.812;4.430;2024-03-22T03:52:35;28.15;;;11.85;;
24799;SDS011;12897;50.812;4.430;2024-03-22T03:57:50;24.23;;;11.03;;
24799;SDS011;12897;50.812;4.430;2024-03-22T04:00:23;26.20;;;12.18;;
24799;SDS011;12897;50.812;4.430;2024-03-22T04:02:52;26.87;;;12.20;;
24799;SDS011;12897;50.812;4.430;2024-03-22T04:05:16;23.20;;;10.78;;
24799;SDS011;12897;50.812;4.430;2024-03-22T04:07:47;24.18;;;11.25;;
24799;SDS011;12897;50.812;4.430;2024-03-22T04:10:14;27.52;;;11.70;;
24799;SDS011;12897;50.812;4.430;2024-03-22T04:15:28;30.95;;;11.57;;
24799;SDS011;12897;50.812;4.430;2024-03-22T04:17:57;23.17;;;11.63;;
24799;SDS011;12897;50.812;4.430;2024-03-22T04:20:25;21.02;;;10.00;;
24799;SDS011;12897;50.812;4.430;2024-03-22T04:22:52;24.60;;;11.30;;
24799;SDS011;12897;50.812;4.430;2024-03-22T04:25:20;24.65;;;12.07;;
24799;SDS011;12897;50.812;4.430;2024-03-22T04:27:47;26.30;;;10.58;;
24799;SDS011;12897;50.812;4.430;2024-03-22T04:30:15;25.75;;;11.93;;
24799;SDS011;12897;50.812;4.430;2024-03-22T04:32:45;24.80;;;10.90;;
24799;SDS011;12897;50.812;4.430;2024-03-22T04:35:14;30.32;;;11.25;;
24799;SDS011;12897;50.812;4.430;2024-03-22T04:37:42;22.77;;;10.75;;
24799;SDS011;12897;50.812;4.430;2024-03-22T04:40:10;21.82;;;10.55;;
24799;SDS011;12897;50.812;4.430;2024-03-22T04:42:37;23.65;;;10.95;;
24799;SDS011;12897;50.812;4.430;2024-03-22T04:45:05;23.50;;;10.45;;
24799;SDS011;12897;50.812;4.430;2024-03-22T04:47:33;22.65;;;10.00;;
24799;SDS011;12897;50.812;4.430;2024-03-22T04:50:02;20.17;;;9.63;;
24799;SDS011;12897;50.812;4.430;2024-03-22T04:52:31;24.05;;;9.90;;
24799;SDS011;12897;50.812;4.430;2024-03-22T04:54:59;22.60;;;10.35;;
24799;SDS011;12897;50.812;4.430;2024-03-22T04:57:28;25.30;;;11.10;;
24799;SDS011;12897;50.812;4.430;2024-03-22T04:59:55;24.52;;;9.98;;
24799;SDS011;12897;50.812;4.430;2024-03-22T05:02:23;23.47;;;10.08;;
24799;SDS011;12897;50.812;4.430;2024-03-22T05:04:50;20.00;;;9.90;;
24799;SDS011;12897;50.812;4.430;2024-03-22T05:07:18;22.05;;;10.15;;
24799;SDS011;12897;50.812;4.430;2024-03-22T05:09:45;22.73;;;10.13;;
24799;SDS011;12897;50.812;4.430;2024-03-22T05:12:13;20.70;;;10.43;;
24799;SDS011;12897;50.812;4.430;2024-03-22T05:14:40;21.27;;;10.03;;
24799;SDS011;12897;50.812;4.430;2024-03-22T05:17:08;25.88;;;11.12;;
24799;SDS011;12897;50.812;4.430;2024-03-22T05:19:35;21.35;;;10.53;;
24799;SDS011;12897;50.812;4.430;2024-03-22T05:22:03;22.75;;;10.20;;
24799;SDS011;12897;50.812;4.430;2024-03-22T05:24:30;26.62;;;10.13;;
24799;SDS011;12897;50.812;4.430;2024-03-22T05:26:58;26.45;;;10.75;;
24799;SDS011;12897;50.812;4.430;2024-03-22T05:29:26;25.43;;;11.38;;
24799;SDS011;12897;50.812;4.430;2024-03-22T05:31:53;24.15;;;11.18;;
24799;SDS011;12897;50.812;4.430;2024-03-22T05:34:21;24.55;;;11.50;;
24799;SDS011;12897;50.812;4.430;2024-03-22T05:36:49;26.07;;;11.83;;
24799;SDS011;12897;50.812;4.430;2024-03-22T05:39:16;25.12;;;11.60;;
24799;SDS011;12897;50.812;4.430;2024-03-22T05:41:44;32.50;;;11.63;;
24799;SDS011;12897;50.812;4.430;2024-03-22T05:44:11;28.83;;;11.80;;
24799;SDS011;12897;50.812;4.430;2024-03-22T05:46:39;25.90;;;11.60;;
24799;SDS011;12897;50.812;4.430;2024-03-22T05:49:06;29.18;;;11.73;;
24799;SDS011;12897;50.812;4.430;2024-03-22T05:51:34;32.93;;;12.93;;
24799;SDS011;12897;50.812;4.430;2024-03-22T05:54:02;27.75;;;11.35;;
24799;SDS011;12897;50.812;4.430;2024-03-22T05:56:29;27.67;;;12.43;;
24799;SDS011;12897;50.812;4.430;2024-03-22T05:58:57;26.68;;;12.13;;
24799;SDS011;12897;50.812;4.430;2024-03-22T06:01:25;28.73;;;11.22;;
24799;SDS011;12897;50.812;4.430;2024-03-22T06:03:53;25.95;;;11.60;;
24799;SDS011;12897;50.812;4.430;2024-03-22T06:06:20;27.50;;;11.90;;
24799;SDS011;12897;50.812;4.430;2024-03-22T06:08:52;27.77;;;11.73;;
24799;SDS011;12897;50.812;4.430;2024-03-22T06:11:20;30.23;;;12.85;;
24799;SDS011;12897;50.812;4.430;2024-03-22T06:13:48;28.15;;;10.95;;
24799;SDS011;12897;50.812;4.430;2024-03-22T06:16:17;24.90;;;10.85;;
24799;SDS011;12897;50.812;4.430;2024-03-22T06:18:44;24.72;;;11.55;;
24799;SDS011;12897;50.812;4.430;2024-03-22T06:21:12;30.45;;;10.18;;
24799;SDS011;12897;50.812;4.430;2024-03-22T06:23:40;24.25;;;11.48;;
24799;SDS011;12897;50.812;4.430;2024-03-22T06:26:08;21.73;;;9.93;;
24799;SDS011;12897;50.812;4.430;2024-03-22T06:28:36;20.50;;;9.50;;
24799;SDS011;12897;50.812;4.430;2024-03-22T06:31:03;19.27;;;8.85;;
24799;SDS011;12897;50.812;4.430;2024-03-22T06:33:31;27.20;;;9.10;;
24799;SDS011;12897;50.812;4.430;2024-03-22T06:35:58;19.73;;;8.90;;
24799;SDS011;12897;50.812;4.430;2024-03-22T06:38:26;19.10;;;9.33;;
24799;SDS011;12897;50.812;4.430;2024-03-22T06:40:53;22.22;;;8.43;;
24799;SDS011;12897;50.812;4.430;2024-03-22T06:43:21;22.25;;;9.38;;
24799;SDS011;12897;50.812;4.430;2024-03-22T06:45:49;28.50;;;12.03;;
24799;SDS011;12897;50.812;4.430;2024-03-22T06:48:17;20.82;;;8.85;;
24799;SDS011;12897;50.812;4.430;2024-03-22T06:50:45;21.02;;;9.65;;
24799;SDS011;12897;50.812;4.430;2024-03-22T06:53:13;20.37;;;9.43;;
24799;SDS011;12897;50.812;4.430;2024-03-22T06:55:41;21.42;;;8.98;;
24799;SDS011;12897;50.812;4.430;2024-03-22T06:58:08;23.85;;;9.63;;
24799;SDS011;12897;50.812;4.430;2024-03-22T07:00:36;24.05;;;9.38;;
24799;SDS011;12897;50.812;4.430;2024-03-22T07:03:03;21.73;;;9.68;;
24799;SDS011;12897;50.812;4.430;2024-03-22T07:05:31;20.27;;;8.85;;
24799;SDS011;12897;50.812;4.430;2024-03-22T07:07:59;21.07;;;8.55;;
24799;SDS011;12897;50.812;4.430;2024-03-22T07:10:26;22.65;;;9.13;;
24799;SDS011;12897;50.812;4.430;2024-03-22T07:12:54;23.65;;;9.80;;
24799;SDS011;12897;50.812;4.430;2024-03-22T07:15:23;26.48;;;9.53;;
24799;SDS011;12897;50.812;4.430;2024-03-22T07:17:50;27.42;;;9.93;;
24799;SDS011;12897;50.812;4.430;2024-03-22T07:20:18;26.65;;;10.43;;
24799;SDS011;12897;50.812;4.430;2024-03-22T07:22:46;27.13;;;10.20;;
24799;SDS011;12897;50.812;4.430;2024-03-22T07:25:13;31.42;;;11.65;;
24799;SDS011;12897;50.812;4.430;2024-03-22T07:27:41;30.65;;;11.33;;
24799;SDS011;12897;50.812;4.430;2024-03-22T07:30:08;25.88;;;10.45;;
24799;SDS011;12897;50.812;4.430;2024-03-22T07:32:36;28.12;;;10.58;;
24799;SDS011;12897;50.812;4.430;2024-03-22T07:35:04;27.30;;;10.50;;
24799;SDS011;12897;50.812;4.430;2024-03-22T07:37:33;27.22;;;11.63;;
24799;SDS011;12897;50.812;4.430;2024-03-22T07:40:01;24.87;;;10.72;;
24799;SDS011;12897;50.812;4.430;2024-03-22T07:44:58;27.22;;;10.93;;
24799;SDS011;12897;50.812;4.430;2024-03-22T07:47:25;30.70;;;10.32;;
24799;SDS011;12897;50.812;4.430;2024-03-22T07:49:53;26.15;;;10.68;;
24799;SDS011;12897;50.812;4.430;2024-03-22T07:52:21;21.68;;;10.32;;
24799;SDS011;12897;50.812;4.430;2024-03-22T07:54:50;26.57;;;10.53;;
24799;SDS011;12897;50.812;4.430;2024-03-22T07:57:18;23.32;;;11.05;;
24799;SDS011;12897;50.812;4.430;2024-03-22T07:59:46;21.10;;;9.28;;
24799;SDS011;12897;50.812;4.430;2024-03-22T08:02:13;21.80;;;9.23;;
24799;SDS011;12897;50.812;4.430;2024-03-22T08:04:41;25.85;;;10.00;;
24799;SDS011;12897;50.812;4.430;2024-03-22T08:07:08;19.48;;;9.60;;
24799;SDS011;12897;50.812;4.430;2024-03-22T08:09:36;19.87;;;9.33;;
24799;SDS011;12897;50.812;4.430;2024-03-22T08:12:04;22.67;;;10.00;;
24799;SDS011;12897;50.812;4.430;2024-03-22T08:14:32;22.73;;;9.90;;
24799;SDS011;12897;50.812;4.430;2024-03-22T08:16:59;25.20;;;11.45;;
24799;SDS011;12897;50.812;4.430;2024-03-22T08:19:27;24.27;;;10.13;;
24799;SDS011;12897;50.812;4.430;2024-03-22T08:21:54;25.57;;;10.90;;
24799;SDS011;12897;50.812;4.430;2024-03-22T08:24:22;29.40;;;12.40;;
24799;SDS011;12897;50.812;4.430;2024-03-22T08:26:50;27.82;;;11.35;;
24799;SDS011;12897;50.812;4.430;2024-03-22T08:29:17;27.27;;;11.93;;
24799;SDS011;12897;50.812;4.430;2024-03-22T08:31:45;26.15;;;11.63;;
24799;SDS011;12897;50.812;4.430;2024-03-22T08:34:13;22.98;;;10.45;;
24799;SDS011;12897;50.812;4.430;2024-03-22T08:36:40;24.95;;;10.08;;
24799;SDS011;12897;50.812;4.430;2024-03-22T08:39:08;27.77;;;11.95;;
24799;SDS011;12897;50.812;4.430;2024-03-22T08:41:39;24.15;;;11.08;;
24799;SDS011;12897;50.812;4.430;2024-03-22T08:44:06;24.95;;;11.63;;
24799;SDS011;12897;50.812;4.430;2024-03-22T08:46:34;23.85;;;11.30;;
24799;SDS011;12897;50.812;4.430;2024-03-22T08:49:02;21.62;;;10.78;;
24799;SDS011;12897;50.812;4.430;2024-03-22T08:51:30;22.00;;;10.53;;
24799;SDS011;12897;50.812;4.430;2024-03-22T08:53:58;23.32;;;10.38;;
24799;SDS011;12897;50.812;4.430;2024-03-22T08:56:26;20.30;;;9.88;;
24799;SDS011;12897;50.812;4.430;2024-03-22T08:58:54;21.90;;;9.80;;
24799;SDS011;12897;50.812;4.430;2024-03-22T09:01:22;18.82;;;8.85;;
24799;SDS011;12897;50.812;4.430;2024-03-22T09:03:49;19.15;;;9.58;;
24799;SDS011;12897;50.812;4.430;2024-03-22T09:06:17;21.07;;;9.05;;
24799;SDS011;12897;50.812;4.430;2024-03-22T09:08:45;18.17;;;9.00;;
24799;SDS011;12897;50.812;4.430;2024-03-22T09:11:13;21.12;;;8.43;;
24799;SDS011;12897;50.812;4.430;2024-03-22T09:13:40;21.27;;;9.50;;
24799;SDS011;12897;50.812;4.430;2024-03-22T09:16:08;21.45;;;10.43;;
24799;SDS011;12897;50.812;4.430;2024-03-22T09:18:35;22.37;;;9.48;;
24799;SDS011;12897;50.812;4.430;2024-03-22T09:21:03;23.85;;;9.98;;
24799;SDS011;12897;50.812;4.430;2024-03-22T09:23:30;21.45;;;9.28;;
24799;SDS011;12897;50.812;4.430;2024-03-22T09:25:58;20.27;;;10.30;;
24799;SDS011;12897;50.812;4.430;2024-03-22T09:28:26;21.00;;;10.18;;
24799;SDS011;12897;50.812;4.430;2024-03-22T09:30:54;21.15;;;9.48;;
24799;SDS011;12897;50.812;4.430;2024-03-22T09:33:22;17.65;;;9.00;;
24799;SDS011;12897;50.812;4.430;2024-03-22T09:35:49;18.52;;;9.45;;
24799;SDS011;12897;50.812;4.430;2024-03-22T09:38:17;23.32;;;9.28;;
24799;SDS011;12897;50.812;4.430;2024-03-22T09:40:44;19.85;;;8.93;;
24799;SDS011;12897;50.812;4.430;2024-03-22T09:43:13;21.52;;;9.23;;
24799;SDS011;12897;50.812;4.430;2024-03-22T09:45:44;21.40;;;10.40;;
24799;SDS011;12897;50.812;4.430;2024-03-22T09:48:12;22.80;;;11.90;;
24799;SDS011;12897;50.812;4.430;2024-03-22T09:50:40;21.73;;;10.45;;
24799;SDS011;12897;50.812;4.430;2024-03-22T09:53:08;24.82;;;11.43;;
24799;SDS011;12897;50.812;4.430;2024-03-22T09:55:37;23.63;;;10.63;;
24799;SDS011;12897;50.812;4.430;2024-03-22T09:58:07;21.42;;;10.65;;
24799;SDS011;12897;50.812;4.430;2024-03-22T10:00:35;21.30;;;11.15;;
24799;SDS011;12897;50.812;4.430;2024-03-22T10:03:03;21.62;;;10.58;;
24799;SDS011;12897;50.812;4.430;2024-03-22T10:05:31;19.10;;;10.45;;
24799;SDS011;12897;50.812;4.430;2024-03-22T10:07:59;30.27;;;11.15;;
24799;SDS011;12897;50.812;4.430;2024-03-22T10:10:27;21.12;;;10.35;;
24799;SDS011;12897;50.812;4.430;2024-03-22T10:12:55;24.90;;;10.65;;
24799;SDS011;12897;50.812;4.430;2024-03-22T10:15:27;19.45;;;9.73;;
24799;SDS011;12897;50.812;4.430;2024-03-22T10:20:23;18.80;;;9.18;;
24799;SDS011;12897;50.812;4.430;2024-03-22T10:23:13;18.87;;;8.97;;
24799;SDS011;12897;50.812;4.430;2024-03-22T10:28:00;19.52;;;9.08;;
24799;SDS011;12897;50.812;4.430;2024-03-22T10:30:28;18.67;;;9.58;;
24799;SDS011;12897;50.812;4.430;2024-03-22T10:33:04;18.55;;;8.75;;
24799;SDS011;12897;50.812;4.430;2024-03-22T10:35:30;18.07;;;9.15;;
24799;SDS011;12897;50.812;4.430;2024-03-22T10:38:04;19.77;;;8.80;;
24799;SDS011;12897;50.812;4.430;2024-03-22T10:40:34;20.40;;;9.10;;
24799;SDS011;12897;50.812;4.430;2024-03-22T10:43:07;16.82;;;8.20;;
24799;SDS011;12897;50.812;4.430;2024-03-22T10:45:37;15.40;;;8.60;;
24799;SDS011;12897;50.812;4.430;2024-03-22T10:48:10;15.37;;;7.97;;
24799;SDS011;12897;50.812;4.430;2024-03-22T10:50:44;17.73;;;8.63;;
24799;SDS011;12897;50.812;4.430;2024-03-22T10:53:29;17.25;;;8.78;;
24799;SDS011;12897;50.812;4.430;2024-03-22T10:55:49;19.35;;;8.50;;
24799;SDS011;12897;50.812;4.430;2024-03-22T10:58:21;17.80;;;8.00;;
24799;SDS011;12897;50.812;4.430;2024-03-22T11:00:52;16.75;;;8.55;;
24799;SDS011;12897;50.812;4.430;2024-03-22T11:03:30;18.32;;;8.93;;
24799;SDS011;12897;50.812;4.430;2024-03-22T11:06:01;18.05;;;8.70;;
24799;SDS011;12897;50.812;4.430;2024-03-22T11:08:29;21.90;;;9.23;;
24799;SDS011;12897;50.812;4.430;2024-03-22T11:11:08;19.10;;;9.43;;
24799;SDS011;12897;50.812;4.430;2024-03-22T11:13:46;16.48;;;8.38;;
24799;SDS011;12897;50.812;4.430;2024-03-22T11:16:28;16.52;;;8.78;;
24799;SDS011;12897;50.812;4.430;2024-03-22T11:18:45;19.07;;;9.43;;
24799;SDS011;12897;50.812;4.430;2024-03-22T11:21:19;16.65;;;8.48;;
24799;SDS011;12897;50.812;4.430;2024-03-22T11:23:57;18.37;;;9.30;;
24799;SDS011;12897;50.812;4.430;2024-03-22T11:26:33;15.98;;;8.93;;
24799;SDS011;12897;50.812;4.430;2024-03-22T11:29:04;16.50;;;8.43;;
24799;SDS011;12897;50.812;4.430;2024-03-22T11:31:31;15.90;;;8.60;;
24799;SDS011;12897;50.812;4.430;2024-03-22T11:33:59;16.35;;;7.67;;
24799;SDS011;12897;50.812;4.430;2024-03-22T11:36:27;14.87;;;7.85;;
24799;SDS011;12897;50.812;4.430;2024-03-22T11:38:56;20.10;;;8.45;;
24799;SDS011;12897;50.812;4.430;2024-03-22T11:41:29;19.75;;;8.48;;
24799;SDS011;12897;50.812;4.430;2024-03-22T11:43:54;17.48;;;8.00;;
24799;SDS011;12897;50.812;4.430;2024-03-22T11:46:24;19.65;;;7.60;;
24799;SDS011;12897;50.812;4.430;2024-03-22T11:48:52;16.85;;;7.85;;
24799;SDS011;12897;50.812;4.430;2024-03-22T11:51:20;18.07;;;8.20;;
24799;SDS011;12897;50.812;4.430;2024-03-22T11:53:49;15.85;;;7.60;;
24799;SDS011;12897;50.812;4.430;2024-03-22T11:56:20;16.50;;;8.10;;
24799;SDS011;12897;50.812;4.430;2024-03-22T11:58:48;16.05;;;8.10;;
24799;SDS011;12897;50.812;4.430;2024-03-22T12:01:18;14.43;;;8.43;;
24799;SDS011;12897;50.812;4.430;2024-03-22T12:03:48;18.82;;;8.08;;
24799;SDS011;12897;50.812;4.430;2024-03-22T12:06:16;15.90;;;8.43;;
24799;SDS011;12897;50.812;4.430;2024-03-22T12:08:44;21.37;;;8.80;;
24799;SDS011;12897;50.812;4.430;2024-03-22T12:11:11;14.90;;;8.10;;
24799;SDS011;12897;50.812;4.430;2024-03-22T12:13:40;20.97;;;8.88;;
24799;SDS011;12897;50.812;4.430;2024-03-22T12:16:07;15.38;;;7.90;;
24799;SDS011;12897;50.812;4.430;2024-03-22T12:18:35;21.02;;;9.03;;
24799;SDS011;12897;50.812;4.430;2024-03-22T12:21:02;14.23;;;8.43;;
24799;SDS011;12897;50.812;4.430;2024-03-22T12:23:30;15.75;;;8.33;;
24799;SDS011;12897;50.812;4.430;2024-03-22T12:25:58;20.48;;;8.33;;
24799;SDS011;12897;50.812;4.430;2024-03-22T12:28:25;18.20;;;8.45;;
24799;SDS011;12897;50.812;4.430;2024-03-22T12:30:53;16.57;;;8.63;;
24799;SDS011;12897;50.812;4.430;2024-03-22T12:33:20;16.32;;;8.68;;
24799;SDS011;12897;50.812;4.430;2024-03-22T12:35:48;15.63;;;8.35;;
24799;SDS011;12897;50.812;4.430;2024-03-22T12:38:15;15.78;;;8.23;;
24799;SDS011;12897;50.812;4.430;2024-03-22T12:40:43;15.85;;;8.05;;
24799;SDS011;12897;50.812;4.430;2024-03-22T12:43:11;14.10;;;8.80;;
24799;SDS011;12897;50.812;4.430;2024-03-22T12:45:38;19.92;;;8.73;;
24799;SDS011;12897;50.812;4.430;2024-03-22T12:48:06;16.85;;;8.15;;
24799;SDS011;12897;50.812;4.430;2024-03-22T12:50:34;16.93;;;8.90;;
24799;SDS011;12897;50.812;4.430;2024-03-22T12:53:02;17.00;;;8.43;;
24799;SDS011;12897;50.812;4.430;2024-03-22T12:55:30;19.75;;;8.95;;
24799;SDS011;12897;50.812;4.430;2024-03-22T12:57:58;21.07;;;9.70;;
24799;SDS011;12897;50.812;4.430;2024-03-22T13:00:25;18.00;;;8.58;;
24799;SDS011;12897;50.812;4.430;2024-03-22T13:02:53;19.07;;;9.13;;
24799;SDS011;12897;50.812;4.430;2024-03-22T13:05:21;21.15;;;8.80;;
24799;SDS011;12897;50.812;4.430;2024-03-22T13:07:49;18.60;;;8.75;;
24799;SDS011;12897;50.812;4.430;2024-03-22T13:10:16;23.90;;;9.40;;
24799;SDS011;12897;50.812;4.430;2024-03-22T13:12:44;15.53;;;8.33;;
24799;SDS011;12897;50.812;4.430;2024-03-22T13:15:11;23.65;;;8.65;;
24799;SDS011;12897;50.812;4.430;2024-03-22T13:17:40;22.02;;;9.05;;
24799;SDS011;12897;50.812;4.430;2024-03-22T13:20:13;15.18;;;8.45;;
24799;SDS011;12897;50.812;4.430;2024-03-22T13:22:42;20.15;;;8.75;;
24799;SDS011;12897;50.812;4.430;2024-03-22T13:25:11;15.80;;;8.60;;
24799;SDS011;12897;50.812;4.430;2024-03-22T13:27:38;17.40;;;8.30;;
24799;SDS011;12897;50.812;4.430;2024-03-22T13:30:06;20.88;;;8.50;;
24799;SDS011;12897;50.812;4.430;2024-03-22T13:32:38;24.40;;;9.18;;
24799;SDS011;12897;50.812;4.430;2024-03-22T13:35:06;14.87;;;8.40;;
24799;SDS011;12897;50.812;4.430;2024-03-22T13:37:34;17.77;;;7.90;;
24799;SDS011;12897;50.812;4.430;2024-03-22T13:40:02;18.67;;;7.22;;
24799;SDS011;12897;50.812;4.430;2024-03-22T13:42:29;23.02;;;8.35;;
24799;SDS011;12897;50.812;4.430;2024-03-22T13:44:57;12.90;;;7.05;;
24799;SDS011;12897;50.812;4.430;2024-03-22T13:47:25;17.42;;;7.22;;
24799;SDS011;12897;50.812;4.430;2024-03-22T13:49:56;19.95;;;8.35;;
24799;SDS011;12897;50.812;4.430;2024-03-22T13:52:23;17.92;;;8.03;;
24799;SDS011;12897;50.812;4.430;2024-03-22T13:54:51;14.55;;;7.62;;
24799;SDS011;12897;50.812;4.430;2024-03-22T13:57:19;13.88;;;7.47;;
24799;SDS011;12897;50.812;4.430;2024-03-22T13:59:47;20.27;;;8.25;;
24799;SDS011;12897;50.812;4.430;2024-03-22T14:02:14;21.12;;;8.35;;
24799;SDS011;12897;50.812;4.430;2024-03-22T14:04:42;18.45;;;8.03;;
24799;SDS011;12897;50.812;4.430;2024-03-22T14:07:09;16.67;;;7.37;;
24799;SDS011;12897;50.812;4.430;2024-03-22T14:09:37;18.27;;;7.70;;
24799;SDS011;12897;50.812;4.430;2024-03-22T14:12:06;18.70;;;8.30;;
24799;SDS011;12897;50.812;4.430;2024-03-22T14:14:34;14.95;;;7.92;;
24799;SDS011;12897;50.812;4.430;2024-03-22T14:17:02;17.40;;;9.20;;
24799;SDS011;12897;50.812;4.430;2024-03-22T14:19:29;15.75;;;8.83;;
24799;SDS011;12897;50.812;4.430;2024-03-22T14:21:57;15.58;;;7.90;;
24799;SDS011;12897;50.812;4.430;2024-03-22T14:24:24;16.60;;;8.63;;
24799;SDS011;12897;50.812;4.430;2024-03-22T14:26:52;15.05;;;8.28;;
24799;SDS011;12897;50.812;4.430;2024-03-22T14:29:19;16.10;;;8.28;;
24799;SDS011;12897;50.812;4.430;2024-03-22T14:31:47;16.55;;;8.95;;
24799;SDS011;12897;50.812;4.430;2024-03-22T14:34:14;20.32;;;9.40;;
24799;SDS011;12897;50.812;4.430;2024-03-22T14:36:43;15.20;;;7.50;;
24799;SDS011;12897;50.812;4.430;2024-03-22T14:39:11;12.25;;;7.50;;
24799;SDS011;12897;50.812;4.430;2024-03-22T14:41:38;17.25;;;7.28;;
24799;SDS011;12897;50.812;4.430;2024-03-22T14:44:06;16.75;;;7.00;;
24799;SDS011;12897;50.812;4.430;2024-03-22T14:46:33;17.50;;;7.25;;
24799;SDS011;12897;50.812;4.430;2024-03-22T14:49:01;17.85;;;7.10;;